createdAt,value
2023-01-26T00:01:01.910Z,101914.94
2023-01-26T00:03:34.348Z,101913.00
2023-01-26T00:06:08.549Z,101912.73
2023-01-26T00:08:41.931Z,101911.40
2023-01-26T00:11:17.282Z,101904.21
2023-01-26T00:13:52.744Z,101904.17
2023-01-26T00:16:25.521Z,101905.06
2023-01-26T00:18:58.049Z,101899.23
2023-01-26T00:21:30.336Z,101897.90
2023-01-26T00:24:04.792Z,101896.53
2023-01-26T00:26:37.411Z,101893.77
2023-01-26T00:29:09.774Z,101892.32
2023-01-26T00:31:42.257Z,101892.26
2023-01-26T00:34:14.581Z,101898.98
2023-01-26T00:36:47.159Z,101891.98
2023-01-26T00:39:19.902Z,101900.63
2023-01-26T00:42:09.591Z,101902.47
2023-01-26T00:44:43.286Z,101899.71
2023-01-26T00:47:16.584Z,101899.33
2023-01-26T00:49:48.902Z,101896.48
2023-01-26T00:52:21.192Z,101895.05
2023-01-26T00:54:53.348Z,101887.26
2023-01-26T00:57:25.603Z,101885.64
2023-01-26T00:59:58.258Z,101882.94
2023-01-26T01:02:30.607Z,101877.23
2023-01-26T01:05:02.917Z,101874.29
2023-01-26T01:07:35.312Z,101873.80
2023-01-26T01:10:09.097Z,101873.75
2023-01-26T01:12:41.419Z,101868.23
2023-01-26T01:15:14.053Z,101866.22
2023-01-26T01:17:46.436Z,101869.85
2023-01-26T01:20:19.309Z,101868.52
2023-01-26T01:22:53.953Z,101867.90
2023-01-26T01:25:26.390Z,101869.44
2023-01-26T01:27:58.777Z,101861.86
2023-01-26T01:30:31.080Z,101867.05
2023-01-26T01:33:03.360Z,101864.98
2023-01-26T01:35:36.429Z,101860.85
2023-01-26T01:38:11.463Z,101857.50
2023-01-26T01:40:47.162Z,101859.68
2023-01-26T01:43:19.671Z,101853.63
2023-01-26T01:45:53.384Z,101848.27
2023-01-26T01:48:31.451Z,101848.88
2023-01-26T01:51:09.676Z,101845.67
2023-01-26T01:53:47.590Z,101839.80
2023-01-26T01:56:24.926Z,101838.69
2023-01-26T01:58:59.680Z,101835.08
2023-01-26T02:01:32.551Z,101834.97
2023-01-26T02:04:07.111Z,101827.17
2023-01-26T02:06:44.989Z,101825.90
2023-01-26T02:09:31.539Z,101819.73
2023-01-26T02:12:06.227Z,101816.73
2023-01-26T02:14:39.501Z,101819.64
2023-01-26T02:17:12.086Z,101813.35
2023-01-26T02:19:52.232Z,101812.44
2023-01-26T02:22:33.209Z,101804.79
2023-01-26T02:25:14.275Z,101806.05
2023-01-26T02:27:46.652Z,101799.86
2023-01-26T02:30:19.984Z,101798.48
2023-01-26T02:32:52.611Z,101794.42
2023-01-26T02:35:25.081Z,101792.98
2023-01-26T02:37:58.061Z,101793.45
2023-01-26T02:40:39.545Z,101790.41
2023-01-26T02:43:12.552Z,101785.42
2023-01-26T02:45:45.541Z,101782.98
2023-01-26T02:48:38.006Z,101783.36
2023-01-26T02:51:10.665Z,101777.99
2023-01-26T02:53:42.977Z,101777.32
2023-01-26T02:56:15.349Z,101777.02
2023-01-26T02:58:47.593Z,101783.72
2023-01-26T03:01:19.965Z,101784.63
2023-01-26T03:03:52.255Z,101781.27
2023-01-26T03:06:24.412Z,101784.70
2023-01-26T03:08:56.843Z,101784.80
2023-01-26T03:11:42.171Z,101781.17
2023-01-26T03:14:15.957Z,101781.84
2023-01-26T03:16:48.277Z,101779.80
2023-01-26T03:19:38.374Z,101781.65
2023-01-26T03:22:28.921Z,101778.66
2023-01-26T03:25:18.520Z,101778.16
2023-01-26T03:27:51.513Z,101771.76
2023-01-26T03:30:23.939Z,101765.90
2023-01-26T03:32:56.518Z,101770.83
2023-01-26T03:35:28.835Z,101773.98
2023-01-26T03:38:01.150Z,101761.61
2023-01-26T03:40:50.769Z,101747.86
2023-01-26T03:43:40.672Z,101745.85
2023-01-26T03:46:30.852Z,101742.83
2023-01-26T03:49:20.849Z,101741.08
2023-01-26T03:52:10.711Z,101732.70
2023-01-26T03:55:00.770Z,101731.30
2023-01-26T03:57:33.360Z,101725.36
2023-01-26T04:00:08.005Z,101724.94
2023-01-26T04:02:58.041Z,101719.43
2023-01-26T04:05:47.998Z,101722.97
2023-01-26T04:08:24.092Z,101716.82
2023-01-26T04:10:58.127Z,101711.41
2023-01-26T04:13:48.080Z,101695.95
2023-01-26T04:16:37.787Z,101692.09
2023-01-26T04:19:27.288Z,101691.64
2023-01-26T04:22:01.838Z,101688.60
2023-01-26T04:24:34.203Z,101686.72
2023-01-26T04:27:06.753Z,101688.42
2023-01-26T04:29:38.984Z,101688.36
2023-01-26T04:32:11.297Z,101687.71
2023-01-26T04:34:43.617Z,101676.50
2023-01-26T04:37:16.047Z,101672.21
2023-01-26T04:39:48.276Z,101673.41
2023-01-26T04:42:20.599Z,101670.81
2023-01-26T04:44:53.218Z,101671.19
2023-01-26T04:47:27.591Z,101673.59
2023-01-26T04:50:01.286Z,101673.84
2023-01-26T04:52:33.662Z,101675.91
2023-01-26T04:55:06.686Z,101678.48
2023-01-26T04:57:38.979Z,101679.66
2023-01-26T05:00:14.279Z,101679.50
2023-01-26T05:02:46.840Z,101674.21
2023-01-26T05:05:19.411Z,101673.48
2023-01-26T05:07:53.428Z,101659.17
2023-01-26T05:10:26.039Z,101666.59
2023-01-26T05:12:58.682Z,101670.33
2023-01-26T05:15:31.018Z,101670.27
2023-01-26T05:18:03.861Z,101665.70
2023-01-26T05:20:36.533Z,101665.83
2023-01-26T05:23:08.840Z,101660.80
2023-01-26T05:25:41.753Z,101658.23
2023-01-26T05:28:14.140Z,101659.56
2023-01-26T05:30:46.648Z,101662.59
2023-01-26T05:33:22.156Z,101657.46
2023-01-26T05:35:55.532Z,101657.56
2023-01-26T05:38:27.997Z,101655.48
2023-01-26T05:41:00.682Z,101647.60
2023-01-26T05:43:33.017Z,101651.23
2023-01-26T05:46:05.418Z,101659.24
2023-01-26T05:48:37.905Z,101657.14
2023-01-26T05:51:10.256Z,101659.08
2023-01-26T05:53:42.546Z,101659.69
2023-01-26T05:56:14.964Z,101662.31
2023-01-26T05:58:47.261Z,101658.60
2023-01-26T06:01:19.616Z,101655.34
2023-01-26T06:03:51.941Z,101646.49
2023-01-26T06:06:24.213Z,101645.38
2023-01-26T06:08:56.505Z,101640.61
2023-01-26T06:11:28.849Z,101640.50
2023-01-26T06:14:04.137Z,101642.84
2023-01-26T06:16:36.502Z,101634.07
2023-01-26T06:19:10.750Z,101638.96
2023-01-26T06:21:43.254Z,101639.92
2023-01-26T06:24:15.832Z,101640.13
2023-01-26T06:26:50.639Z,101639.55
2023-01-26T06:29:23.006Z,101632.73
2023-01-26T06:31:55.248Z,101630.46
2023-01-26T06:34:27.820Z,101632.71
2023-01-26T06:37:03.029Z,101640.35
2023-01-26T06:39:35.635Z,101642.48
2023-01-26T06:42:08.981Z,101640.57
2023-01-26T06:44:41.339Z,101634.38
2023-01-26T06:47:15.094Z,101640.31
2023-01-26T06:49:47.406Z,101637.69
2023-01-26T06:52:37.235Z,101640.94
2023-01-26T06:55:20.297Z,101635.74
2023-01-26T06:57:52.681Z,101637.17
2023-01-26T07:00:26.156Z,101640.73
2023-01-26T07:02:58.573Z,101637.35
2023-01-26T07:05:30.970Z,101634.45
2023-01-26T07:08:04.502Z,101633.82
2023-01-26T07:10:36.931Z,101631.41
2023-01-26T07:13:09.435Z,101635.52
2023-01-26T07:15:41.701Z,101626.05
2023-01-26T07:18:14.044Z,101625.30
2023-01-26T07:20:46.259Z,101619.11
2023-01-26T07:23:18.522Z,101617.51
2023-01-26T07:25:50.831Z,101608.33
2023-01-26T07:28:23.537Z,101601.70
2023-01-26T07:30:58.544Z,101606.46
2023-01-26T07:33:31.654Z,101600.41
2023-01-26T07:36:04.323Z,101594.35
2023-01-26T07:38:37.362Z,101590.88
2023-01-26T07:41:13.763Z,101592.06
2023-01-26T07:43:46.165Z,101586.35
2023-01-26T07:46:18.581Z,101582.81
2023-01-26T07:48:50.932Z,101586.95
2023-01-26T07:51:23.696Z,101590.27
2023-01-26T07:53:56.096Z,101589.84
2023-01-26T07:56:28.548Z,101591.42
2023-01-26T07:59:02.891Z,101592.87
2023-01-26T08:01:36.199Z,101591.23
2023-01-26T08:04:08.568Z,101587.86
2023-01-26T08:06:40.885Z,101590.00
2023-01-26T08:09:13.755Z,101589.95
2023-01-26T08:11:46.190Z,101589.42
2023-01-26T08:14:18.730Z,101589.73
2023-01-26T08:16:50.959Z,101584.17
2023-01-26T08:19:23.397Z,101588.21
2023-01-26T08:21:57.789Z,101585.69
2023-01-26T08:24:30.593Z,101581.21
2023-01-26T08:27:02.884Z,101574.98
2023-01-26T08:29:35.207Z,101576.59
2023-01-26T08:32:08.343Z,101573.72
2023-01-26T08:34:40.839Z,101572.96
2023-01-26T08:37:13.112Z,101569.05
2023-01-26T08:39:45.535Z,101561.21
2023-01-26T08:42:18.093Z,101566.65
2023-01-26T08:44:50.522Z,101565.09
2023-01-26T08:47:22.775Z,101558.80
2023-01-26T08:49:55.120Z,101561.97
2023-01-26T08:52:27.461Z,101564.37
2023-01-26T08:55:00.696Z,101563.66
2023-01-26T08:57:33.130Z,101559.77
2023-01-26T09:00:07.426Z,101558.84
2023-01-26T09:02:40.302Z,101561.58
2023-01-26T09:05:13.443Z,101560.23
2023-01-26T09:07:46.740Z,101555.18
2023-01-26T09:10:19.464Z,101542.73
2023-01-26T09:12:51.975Z,101542.92
2023-01-26T09:15:24.278Z,101545.45
2023-01-26T09:17:56.565Z,101522.90
2023-01-26T09:20:29.615Z,101505.48
2023-01-26T09:23:02.075Z,101501.52
2023-01-26T09:25:37.267Z,101511.33
2023-01-26T09:28:09.581Z,101500.21
2023-01-26T09:30:41.982Z,101488.48
2023-01-26T09:33:14.341Z,101486.10
2023-01-26T09:35:46.699Z,101482.96
2023-01-26T09:38:19.043Z,101487.67
2023-01-26T09:41:03.852Z,101477.19
2023-01-26T09:43:41.680Z,101469.73
2023-01-26T09:46:23.814Z,101472.55
2023-01-26T09:49:06.697Z,101463.12
2023-01-26T09:51:43.223Z,101456.70
2023-01-26T09:54:27.819Z,101457.25
2023-01-26T09:57:03.895Z,101456.11
2023-01-26T09:59:42.902Z,101450.65
2023-01-26T10:02:27.448Z,101445.23
2023-01-26T10:05:06.005Z,101440.76
2023-01-26T10:07:38.455Z,101432.78
2023-01-26T10:10:18.230Z,101438.02
2023-01-26T10:12:52.100Z,101431.42
2023-01-26T10:15:33.230Z,101428.13
2023-01-26T10:18:14.104Z,101440.30
2023-01-26T10:20:49.800Z,101440.09
2023-01-26T10:23:26.982Z,101429.02
2023-01-26T10:26:12.330Z,101422.84
2023-01-26T10:28:46.789Z,101417.55
2023-01-26T10:31:21.809Z,101416.45
2023-01-26T10:33:56.827Z,101415.56
2023-01-26T10:36:33.109Z,101413.37
2023-01-26T10:39:10.369Z,101411.63
2023-01-26T10:41:56.754Z,101406.77
2023-01-26T10:44:35.562Z,101397.88
2023-01-26T10:47:21.612Z,101391.20
2023-01-26T10:49:53.893Z,101385.42
2023-01-26T10:52:27.365Z,101382.42
2023-01-26T10:55:14.220Z,101376.71
2023-01-26T10:57:46.966Z,101371.73
2023-01-26T11:00:29.122Z,101369.55
2023-01-26T11:03:17.824Z,101359.88
2023-01-26T11:06:09.582Z,101356.48
2023-01-26T11:08:42.637Z,101359.44
2023-01-26T11:11:28.457Z,101345.33
2023-01-26T11:14:19.434Z,101346.11
2023-01-26T11:16:55.800Z,101341.02
2023-01-26T11:19:43.651Z,101339.32
2023-01-26T11:22:21.028Z,101338.90
2023-01-26T11:25:02.010Z,101337.85
2023-01-26T11:27:47.585Z,101335.52
2023-01-26T11:30:43.346Z,101334.66
2023-01-26T11:33:26.987Z,101326.25
2023-01-26T11:36:08.475Z,101320.88
2023-01-26T11:38:43.437Z,101310.84
2023-01-26T11:41:33.354Z,101305.21
2023-01-26T11:44:26.974Z,101299.98
2023-01-26T11:47:14.740Z,101295.22
2023-01-26T11:50:06.372Z,101289.33
2023-01-26T11:52:50.242Z,101277.59
2023-01-26T11:55:33.045Z,101269.64
2023-01-26T11:58:22.153Z,101268.26
2023-01-26T12:00:57.743Z,101264.34
2023-01-26T12:03:36.716Z,101266.73
2023-01-26T12:06:16.919Z,101266.57
2023-01-26T12:08:55.061Z,101260.29
2023-01-26T12:11:34.612Z,101256.63
2023-01-26T12:14:15.787Z,101256.39
2023-01-26T12:17:15.596Z,101257.55
2023-01-26T12:19:56.053Z,101251.73
2023-01-26T12:22:34.405Z,101243.64
2023-01-26T12:25:22.476Z,101242.38
2023-01-26T12:28:01.425Z,101234.51
2023-01-26T12:30:44.519Z,101231.54
2023-01-26T12:33:17.192Z,101230.78
2023-01-26T12:36:06.260Z,101222.48
2023-01-26T12:38:51.112Z,101212.80
2023-01-26T12:41:33.610Z,101209.21
2023-01-26T12:44:19.715Z,101211.23
2023-01-26T12:46:56.281Z,101204.42
2023-01-26T12:49:33.869Z,101203.22
2023-01-26T12:52:12.986Z,101201.92
2023-01-26T12:54:50.651Z,101205.04
2023-01-26T12:57:26.814Z,101205.67
2023-01-26T13:00:18.840Z,101204.05
2023-01-26T13:02:54.432Z,101201.58
2023-01-26T13:05:33.826Z,101199.72
2023-01-26T13:08:32.961Z,101195.45
2023-01-26T13:11:06.853Z,101193.48
2023-01-26T13:13:56.482Z,101190.02
2023-01-26T13:16:38.128Z,101183.75
2023-01-26T13:19:47.080Z,101184.08
2023-01-26T13:22:42.458Z,101181.63
2023-01-26T13:25:21.593Z,101183.55
2023-01-26T13:27:59.882Z,101182.61
2023-01-26T13:31:03.949Z,101176.94
2023-01-26T13:33:36.598Z,101177.52
2023-01-26T13:36:16.178Z,101171.27
2023-01-26T13:38:57.086Z,101161.54
2023-01-26T13:41:29.482Z,101164.80
2023-01-26T13:44:11.548Z,101156.76
2023-01-26T13:46:50.660Z,101158.55
2023-01-26T13:49:38.395Z,101158.05
2023-01-26T13:52:20.179Z,101153.20
2023-01-26T13:54:54.813Z,101153.05
2023-01-26T13:57:29.425Z,101156.36
2023-01-26T14:00:02.757Z,101150.61
2023-01-26T14:02:38.904Z,101137.76
2023-01-26T14:05:24.460Z,101136.08
2023-01-26T14:07:57.532Z,101134.20
2023-01-26T14:10:29.855Z,101135.61
2023-01-26T14:13:04.397Z,101134.61
2023-01-26T14:15:36.712Z,101130.83
2023-01-26T14:18:20.099Z,101125.59
2023-01-26T14:20:59.046Z,101121.34
2023-01-26T14:23:35.532Z,101119.35
2023-01-26T14:26:13.673Z,101113.66
2023-01-26T14:28:46.996Z,101110.15
2023-01-26T14:31:23.714Z,101104.32
2023-01-26T14:33:58.986Z,101099.20
2023-01-26T14:36:37.108Z,101098.84
2023-01-26T14:39:19.659Z,101092.46
2023-01-26T14:41:52.383Z,101081.50
2023-01-26T14:44:24.726Z,101087.80
2023-01-26T14:47:03.035Z,101089.88
2023-01-26T14:49:44.143Z,101095.81
2023-01-26T14:52:25.699Z,101092.59
2023-01-26T14:55:00.365Z,101094.45
2023-01-26T14:57:34.384Z,101084.18
2023-01-26T15:00:10.592Z,101089.29
2023-01-26T15:02:50.208Z,101090.66
2023-01-26T15:05:24.678Z,101087.02
2023-01-26T15:08:00.900Z,101085.25
2023-01-26T15:10:42.418Z,101074.48
2023-01-26T15:13:25.581Z,101077.97
2023-01-26T15:16:15.971Z,101071.38
2023-01-26T15:18:59.101Z,101074.52
2023-01-26T15:21:39.692Z,101069.64
2023-01-26T15:24:16.453Z,101075.59
2023-01-26T15:26:49.809Z,101069.48
2023-01-26T15:29:27.532Z,101062.81
2023-01-26T15:32:00.672Z,101058.44
2023-01-26T15:34:36.863Z,101061.08
2023-01-26T15:37:31.103Z,101058.50
2023-01-26T15:40:04.460Z,101059.20
2023-01-26T15:42:36.844Z,101049.14
2023-01-26T15:45:22.844Z,101056.36
2023-01-26T15:47:55.125Z,101057.91
2023-01-26T15:50:28.487Z,101058.26
2023-01-26T15:53:01.094Z,101052.35
2023-01-26T15:55:34.754Z,101061.04
2023-01-26T15:58:06.997Z,101058.73
2023-01-26T16:00:40.487Z,101053.42
2023-01-26T16:03:17.376Z,101052.92
2023-01-26T16:05:49.970Z,101052.98
2023-01-26T16:08:22.733Z,101051.02
2023-01-26T16:10:57.180Z,101055.58
2023-01-26T16:13:29.688Z,101055.05
2023-01-26T16:16:02.022Z,101057.91
2023-01-26T16:18:34.720Z,101060.58
2023-01-26T16:21:20.814Z,101047.73
2023-01-26T16:23:53.399Z,101051.42
2023-01-26T16:26:28.959Z,101048.29
2023-01-26T16:29:01.473Z,101049.21
2023-01-26T16:31:36.732Z,101045.54
2023-01-26T16:34:10.876Z,101039.92
2023-01-26T16:36:43.227Z,101039.63
2023-01-26T16:39:15.677Z,101033.42
2023-01-26T16:41:48.001Z,101027.02
2023-01-26T16:44:22.162Z,101019.30
2023-01-26T16:46:54.321Z,101017.33
2023-01-26T16:49:27.025Z,101014.06
2023-01-26T16:51:59.456Z,101014.08
2023-01-26T16:54:31.772Z,101014.11
2023-01-26T16:57:04.194Z,101019.23
2023-01-26T16:59:36.383Z,101011.59
2023-01-26T17:02:13.319Z,101012.48
2023-01-26T17:04:46.102Z,101008.58
2023-01-26T17:07:18.866Z,101010.33
2023-01-26T17:09:51.705Z,101003.54
2023-01-26T17:12:24.095Z,101001.90
2023-01-26T17:14:56.863Z,100993.59
2023-01-26T17:17:29.399Z,100990.77
2023-01-26T17:20:17.647Z,100988.80
2023-01-26T17:22:51.592Z,100984.24
2023-01-26T17:25:23.933Z,100977.27
2023-01-26T17:27:56.248Z,100977.21
2023-01-26T17:30:28.560Z,100974.21
2023-01-26T17:33:02.091Z,100975.30
2023-01-26T17:35:34.495Z,100981.23
2023-01-26T17:38:06.697Z,100976.34
2023-01-26T17:40:38.962Z,100979.61
2023-01-26T17:43:11.317Z,100974.96
2023-01-26T17:45:43.836Z,100974.48
2023-01-26T17:48:16.193Z,100973.55
2023-01-26T17:50:52.221Z,100969.09
2023-01-26T17:53:24.540Z,100971.36
2023-01-26T17:55:56.777Z,100961.77
2023-01-26T17:58:29.003Z,100961.33
2023-01-26T18:01:01.311Z,100963.41
2023-01-26T18:03:33.772Z,100960.35
2023-01-26T18:06:06.758Z,100960.34
2023-01-26T18:08:40.173Z,100956.08
2023-01-26T18:11:15.125Z,100947.83
2023-01-26T18:13:47.696Z,100941.58
2023-01-26T18:16:21.872Z,100930.94
2023-01-26T18:18:58.798Z,100936.76
2023-01-26T18:21:34.235Z,100941.67
2023-01-26T18:24:08.678Z,100935.65
2023-01-26T18:26:41.299Z,100931.16
2023-01-26T18:29:14.951Z,100925.45
2023-01-26T18:31:48.099Z,100921.27
2023-01-26T18:34:21.328Z,100923.58
2023-01-26T18:36:53.806Z,100920.70
2023-01-26T18:39:27.842Z,100918.46
2023-01-26T18:42:00.321Z,100920.47
2023-01-26T18:44:32.806Z,100916.48
2023-01-26T18:47:05.738Z,100911.39
2023-01-26T18:49:38.018Z,100909.06
2023-01-26T18:52:10.330Z,100914.36
2023-01-26T18:54:42.771Z,100909.65
2023-01-26T18:57:15.490Z,100902.80
2023-01-26T18:59:48.309Z,100900.27
2023-01-26T19:02:20.693Z,100896.96
2023-01-26T19:04:53.780Z,100894.16
2023-01-26T19:07:26.133Z,100896.68
2023-01-26T19:09:58.450Z,100897.73
2023-01-26T19:12:30.753Z,100899.52
2023-01-26T19:15:03.219Z,100902.09
2023-01-26T19:17:35.489Z,100903.02
2023-01-26T19:20:09.692Z,100902.98
2023-01-26T19:22:42.021Z,100891.42
2023-01-26T19:25:14.375Z,100892.48
2023-01-26T19:27:47.240Z,100894.83
2023-01-26T19:30:20.619Z,100893.43
2023-01-26T19:33:10.827Z,100895.36
2023-01-26T19:35:43.474Z,100888.33
2023-01-26T19:38:15.753Z,100889.52
2023-01-26T19:40:49.986Z,100882.88
2023-01-26T19:43:24.041Z,100875.04
2023-01-26T19:45:58.690Z,100865.40
2023-01-26T19:48:31.301Z,100865.95
2023-01-26T19:51:08.389Z,100858.79
2023-01-26T19:53:46.219Z,100847.73
2023-01-26T19:56:20.493Z,100839.68
2023-01-26T19:58:55.426Z,100842.04
2023-01-26T20:01:29.831Z,100837.23
2023-01-26T20:04:04.796Z,100836.77
2023-01-26T20:06:38.133Z,100839.42
2023-01-26T20:09:11.097Z,100838.83
2023-01-26T20:11:43.496Z,100829.68
2023-01-26T20:14:15.767Z,100834.58
2023-01-26T20:16:48.091Z,100831.02
2023-01-26T20:19:20.806Z,100816.52
2023-01-26T20:21:53.220Z,100809.40
2023-01-26T20:24:26.647Z,100803.88
2023-01-26T20:26:59.057Z,100799.34
2023-01-26T20:29:31.378Z,100794.69
2023-01-26T20:32:04.263Z,100793.48
2023-01-26T20:34:41.001Z,100780.30
2023-01-26T20:37:13.666Z,100778.66
2023-01-26T20:39:46.974Z,100774.30
2023-01-26T20:42:19.673Z,100769.46
2023-01-26T20:44:52.082Z,100763.39
2023-01-26T20:47:24.464Z,100760.75
2023-01-26T20:49:57.226Z,100752.91
2023-01-26T20:52:29.579Z,100747.41
2023-01-26T20:55:02.721Z,100745.55
2023-01-26T20:57:35.403Z,100743.92
2023-01-26T21:00:10.404Z,100742.06
2023-01-26T21:02:42.779Z,100742.63
2023-01-26T21:05:15.336Z,100743.98
2023-01-26T21:07:47.608Z,100741.94
2023-01-26T21:10:20.283Z,100745.52
2023-01-26T21:12:52.633Z,100738.02
2023-01-26T21:15:24.985Z,100734.80
2023-01-26T21:17:57.261Z,100731.70
2023-01-26T21:20:29.647Z,100729.48
2023-01-26T21:23:02.025Z,100730.35
2023-01-26T21:25:34.469Z,100726.34
2023-01-26T21:28:06.881Z,100725.45
2023-01-26T21:30:39.338Z,100721.92
2023-01-26T21:33:12.237Z,100715.65
2023-01-26T21:35:44.532Z,100707.96
2023-01-26T21:38:16.785Z,100701.40
2023-01-26T21:40:49.214Z,100692.06
2023-01-26T21:43:21.718Z,100688.99
2023-01-26T21:45:56.130Z,100683.61
2023-01-26T21:48:31.788Z,100679.42
2023-01-26T21:51:22.208Z,100672.25
2023-01-26T21:53:54.652Z,100669.13
2023-01-26T21:56:26.997Z,100668.73
2023-01-26T21:59:02.805Z,100664.81
2023-01-26T22:01:37.717Z,100655.66
2023-01-26T22:04:12.487Z,100645.07
2023-01-26T22:06:45.381Z,100646.13
2023-01-26T22:09:18.798Z,100643.75
2023-01-26T22:11:51.801Z,100640.55
2023-01-26T22:14:26.307Z,100635.60
2023-01-26T22:16:58.609Z,100630.59
2023-01-26T22:19:31.004Z,100626.70
2023-01-26T22:22:03.796Z,100621.45
2023-01-26T22:24:36.011Z,100612.30
2023-01-26T22:27:08.868Z,100611.45
2023-01-26T22:29:41.308Z,100600.00
2023-01-26T22:32:13.756Z,100595.69
2023-01-26T22:34:46.157Z,100591.73
2023-01-26T22:37:18.462Z,100590.80
2023-01-26T22:39:50.861Z,100581.71
2023-01-26T22:42:23.908Z,100571.47
2023-01-26T22:44:56.400Z,100568.73
2023-01-26T22:47:28.732Z,100568.20
2023-01-26T22:50:01.368Z,100564.96
2023-01-26T22:52:33.742Z,100559.45
2023-01-26T22:55:06.588Z,100566.60
2023-01-26T22:57:38.896Z,100573.30
2023-01-26T23:00:15.048Z,100571.97
2023-01-26T23:02:47.917Z,100572.80
2023-01-26T23:05:20.402Z,100579.08
2023-01-26T23:07:52.565Z,100575.04
2023-01-26T23:10:24.828Z,100573.35
2023-01-26T23:12:57.313Z,100569.00
2023-01-26T23:15:29.621Z,100564.02
2023-01-26T23:18:01.891Z,100567.70
2023-01-26T23:20:34.286Z,100566.70
2023-01-26T23:23:06.453Z,100565.09
2023-01-26T23:25:53.891Z,100564.96
2023-01-26T23:28:27.989Z,100573.58
2023-01-26T23:31:01.358Z,100579.52
2023-01-26T23:33:35.036Z,100575.80
2023-01-26T23:36:09.575Z,100571.90
2023-01-26T23:38:42.250Z,100561.80
2023-01-26T23:41:15.495Z,100546.02
2023-01-26T23:43:47.887Z,100538.55
2023-01-26T23:46:20.310Z,100525.26
2023-01-26T23:48:52.526Z,100516.57
2023-01-26T23:51:25.014Z,100516.48
2023-01-26T23:53:57.379Z,100519.13
2023-01-26T23:56:29.802Z,100525.21
2023-01-26T23:59:02.492Z,100527.39
